createdAt,value
2022-09-09T00:01:00.003Z,15.10
2022-09-09T00:03:46.256Z,15.00
2022-09-09T00:06:26.487Z,15.00
2022-09-09T00:09:13.273Z,15.00
2022-09-09T00:12:16.820Z,14.90
2022-09-09T00:14:57.161Z,14.80
2022-09-09T00:17:42.867Z,14.80
2022-09-09T00:20:35.082Z,14.80
2022-09-09T00:23:17.247Z,15.00
2022-09-09T00:26:18.061Z,15.00
2022-09-09T00:29:14.297Z,15.10
2022-09-09T00:31:40.885Z,15.30
2022-09-09T00:34:13.773Z,15.20
2022-09-09T00:36:42.053Z,15.30
2022-09-09T00:39:25.674Z,15.40
2022-09-09T00:42:20.718Z,15.50
2022-09-09T00:45:10.706Z,15.60
2022-09-09T00:47:50.879Z,15.60
2022-09-09T00:50:49.669Z,15.70
2022-09-09T00:53:38.340Z,15.80
2022-09-09T00:56:14.162Z,15.80
2022-09-09T00:58:51.293Z,15.90
2022-09-09T01:01:18.661Z,15.90
2022-09-09T01:03:54.772Z,15.90
2022-09-09T01:06:37.874Z,15.90
2022-09-09T01:09:13.123Z,15.90
2022-09-09T01:11:46.164Z,16.00
2022-09-09T01:14:40.933Z,16.00
2022-09-09T01:17:16.251Z,15.90
2022-09-09T01:19:45.940Z,15.90
2022-09-09T01:22:35.510Z,15.90
2022-09-09T01:25:21.165Z,15.90
2022-09-09T01:27:54.666Z,15.80
2022-09-09T01:30:22.215Z,15.80
2022-09-09T01:32:53.407Z,15.80
2022-09-09T01:36:04.307Z,15.70
2022-09-09T01:38:32.503Z,15.90
2022-09-09T01:40:59.563Z,15.80
2022-09-09T01:43:27.727Z,15.80
2022-09-09T01:45:56.764Z,15.80
2022-09-09T01:48:25.759Z,15.70
2022-09-09T01:50:52.761Z,15.70
2022-09-09T01:53:21.486Z,15.80
2022-09-09T01:56:15.158Z,15.80
2022-09-09T01:59:09.188Z,15.90
2022-09-09T02:01:54.533Z,15.80
2022-09-09T02:04:36.689Z,15.70
2022-09-09T02:07:03.695Z,15.80
2022-09-09T02:09:31.553Z,15.70
2022-09-09T02:12:09.773Z,15.60
2022-09-09T02:14:42.735Z,15.50
2022-09-09T02:17:11.549Z,15.50
2022-09-09T02:19:45.354Z,15.40
2022-09-09T02:22:12.486Z,15.30
2022-09-09T02:24:41.122Z,15.20
2022-09-09T02:27:09.847Z,15.10
2022-09-09T02:29:41.677Z,15.00
2022-09-09T02:32:13.838Z,14.90
2022-09-09T02:34:55.087Z,14.90
2022-09-09T02:37:26.026Z,14.90
2022-09-09T02:39:52.744Z,14.90
2022-09-09T02:42:20.097Z,14.80
2022-09-09T02:44:46.933Z,14.80
2022-09-09T02:47:42.323Z,14.80
2022-09-09T02:50:12.729Z,14.70
2022-09-09T02:53:00.691Z,14.50
2022-09-09T02:55:32.986Z,14.50
2022-09-09T02:58:01.983Z,14.30
2022-09-09T03:00:29.594Z,14.20
2022-09-09T03:02:57.239Z,14.20
2022-09-09T03:05:24.518Z,14.10
2022-09-09T03:07:51.523Z,14.00
2022-09-09T03:10:18.485Z,14.00
2022-09-09T03:12:45.076Z,14.00
2022-09-09T03:15:12.075Z,13.90
2022-09-09T03:17:38.601Z,13.90
2022-09-09T03:20:05.706Z,13.90
2022-09-09T03:22:32.332Z,13.90
2022-09-09T03:24:58.921Z,13.90
2022-09-09T03:27:25.533Z,13.80
2022-09-09T03:29:52.515Z,13.90
2022-09-09T03:32:19.838Z,13.80
2022-09-09T03:34:50.490Z,13.80
2022-09-09T03:37:18.591Z,13.80
2022-09-09T03:39:45.681Z,13.80
2022-09-09T03:42:15.833Z,13.80
2022-09-09T03:44:42.904Z,13.80
2022-09-09T03:47:09.418Z,13.70
2022-09-09T03:49:35.943Z,13.90
2022-09-09T03:52:02.763Z,14.00
2022-09-09T03:54:29.275Z,14.20
2022-09-09T03:56:55.835Z,14.30
2022-09-09T03:59:22.373Z,14.40
2022-09-09T04:01:48.959Z,14.40
2022-09-09T04:04:15.499Z,14.50
2022-09-09T04:09:11.481Z,14.60
2022-09-09T04:11:38.142Z,14.70
2022-09-09T04:14:06.858Z,14.80
2022-09-09T04:16:35.181Z,14.80
2022-09-09T04:19:02.346Z,14.90
2022-09-09T04:21:28.940Z,15.00
2022-09-09T04:23:55.518Z,15.00
2022-09-09T04:26:22.151Z,15.00
2022-09-09T04:28:48.728Z,15.10
2022-09-09T04:31:21.167Z,15.10
2022-09-09T04:33:47.830Z,15.20
2022-09-09T04:36:14.778Z,15.20
2022-09-09T04:38:41.451Z,15.30
2022-09-09T04:41:08.864Z,15.30
2022-09-09T04:43:35.589Z,15.30
2022-09-09T04:46:02.194Z,15.20
2022-09-09T04:48:28.884Z,15.10
2022-09-09T04:51:00.601Z,15.00
2022-09-09T04:53:27.405Z,14.90
2022-09-09T04:56:12.467Z,14.80
2022-09-09T04:58:40.089Z,14.80
2022-09-09T05:01:19.137Z,14.80
2022-09-09T05:03:46.757Z,14.80
2022-09-09T05:06:18.914Z,14.70
2022-09-09T05:08:45.734Z,14.70
2022-09-09T05:11:20.636Z,14.70
2022-09-09T05:13:47.928Z,14.80
2022-09-09T05:16:15.407Z,14.80
2022-09-09T05:18:46.694Z,15.00
2022-09-09T05:21:14.981Z,15.20
2022-09-09T05:23:41.813Z,15.30
2022-09-09T05:26:17.228Z,15.50
2022-09-09T05:28:45.124Z,15.60
2022-09-09T05:31:13.751Z,15.70
2022-09-09T05:33:43.944Z,15.70
2022-09-09T05:36:15.997Z,15.80
2022-09-09T05:38:43.296Z,15.80
2022-09-09T05:41:12.111Z,15.90
2022-09-09T05:43:39.713Z,15.90
2022-09-09T05:46:11.639Z,16.00
2022-09-09T05:48:40.630Z,16.00
2022-09-09T05:51:10.865Z,16.00
2022-09-09T05:53:37.918Z,16.00
2022-09-09T05:56:11.582Z,16.10
2022-09-09T05:58:39.390Z,16.20
2022-09-09T06:01:15.140Z,16.30
2022-09-09T06:03:43.111Z,16.30
2022-09-09T06:06:15.347Z,16.40
2022-09-09T06:08:46.926Z,16.40
2022-09-09T06:11:16.397Z,16.50
2022-09-09T06:13:43.847Z,16.60
2022-09-09T06:16:12.621Z,16.60
2022-09-09T06:18:40.084Z,16.70
2022-09-09T06:21:10.043Z,16.80
2022-09-09T06:23:36.719Z,16.70
2022-09-09T06:26:03.254Z,16.80
2022-09-09T06:28:29.851Z,16.80
2022-09-09T06:31:01.033Z,16.90
2022-09-09T06:33:31.474Z,16.90
2022-09-09T06:35:58.042Z,16.90
2022-09-09T06:38:28.693Z,16.90
2022-09-09T06:40:56.924Z,16.90
2022-09-09T06:43:24.082Z,16.90
2022-09-09T06:45:55.581Z,17.00
2022-09-09T06:48:22.274Z,17.00
2022-09-09T06:50:50.702Z,17.00
2022-09-09T06:53:19.974Z,17.10
2022-09-09T06:55:47.339Z,17.20
2022-09-09T06:58:13.893Z,17.20
2022-09-09T07:00:40.466Z,17.30
2022-09-09T07:03:07.083Z,17.30
2022-09-09T07:05:33.619Z,17.30
2022-09-09T07:08:00.135Z,17.30
2022-09-09T07:10:26.767Z,17.30
2022-09-09T07:12:54.051Z,17.20
2022-09-09T07:15:20.720Z,17.30
2022-09-09T07:17:47.443Z,17.40
2022-09-09T07:20:14.281Z,17.50
2022-09-09T07:22:41.114Z,17.60
2022-09-09T07:25:08.679Z,17.80
2022-09-09T07:27:35.221Z,17.90
2022-09-09T07:30:03.481Z,18.00
2022-09-09T07:32:31.358Z,18.10
2022-09-09T07:34:59.167Z,18.30
2022-09-09T07:37:25.697Z,18.50
2022-09-09T07:39:52.288Z,18.60
2022-09-09T07:42:18.913Z,18.70
2022-09-09T07:44:45.426Z,18.70
2022-09-09T07:47:12.011Z,18.60
2022-09-09T07:49:38.574Z,18.60
2022-09-09T07:52:05.141Z,18.50
2022-09-09T07:54:33.103Z,18.30
2022-09-09T07:57:00.226Z,18.20
2022-09-09T07:59:27.054Z,18.40
2022-09-09T08:01:55.441Z,18.60
2022-09-09T08:04:23.863Z,18.80
2022-09-09T08:06:59.194Z,18.80
2022-09-09T08:09:29.416Z,18.80
2022-09-09T08:11:57.778Z,18.80
2022-09-09T08:14:24.512Z,18.90
2022-09-09T08:16:55.103Z,18.90
2022-09-09T08:19:21.885Z,19.00
2022-09-09T08:21:49.899Z,19.20
2022-09-09T08:24:16.595Z,19.30
2022-09-09T08:26:46.195Z,19.40
2022-09-09T08:29:14.795Z,19.40
2022-09-09T08:31:44.643Z,19.60
2022-09-09T08:34:11.568Z,19.80
2022-09-09T08:36:43.667Z,19.70
2022-09-09T08:39:12.584Z,19.70
2022-09-09T08:42:17.193Z,19.80
2022-09-09T08:45:08.594Z,19.90
2022-09-09T08:47:40.157Z,20.10
2022-09-09T08:50:30.800Z,20.00
2022-09-09T08:53:09.659Z,20.00
2022-09-09T08:55:59.662Z,20.20
2022-09-09T08:58:33.597Z,20.00
2022-09-09T09:01:09.375Z,20.10
2022-09-09T09:03:51.433Z,20.40
2022-09-09T09:07:00.034Z,20.70
2022-09-09T09:09:47.472Z,21.00
2022-09-09T09:12:19.289Z,21.50
2022-09-09T09:14:48.614Z,21.50
2022-09-09T09:17:20.370Z,21.30
2022-09-09T09:19:48.702Z,21.00
2022-09-09T09:22:26.231Z,20.60
2022-09-09T09:25:11.874Z,20.30
2022-09-09T09:28:07.733Z,20.00
2022-09-09T09:30:42.993Z,19.80
2022-09-09T09:33:47.090Z,19.60
2022-09-09T09:36:16.253Z,19.60
2022-09-09T09:41:48.436Z,19.60
2022-09-09T09:44:26.269Z,20.00
2022-09-09T09:46:53.359Z,20.20
2022-09-09T09:49:20.113Z,20.40
2022-09-09T09:51:47.726Z,20.60
2022-09-09T09:54:14.276Z,20.50
2022-09-09T09:56:41.886Z,20.60
2022-09-09T09:59:41.887Z,20.70
2022-09-09T10:02:24.181Z,20.90
2022-09-09T10:05:06.459Z,20.90
2022-09-09T10:07:34.233Z,21.00
2022-09-09T10:10:01.539Z,21.10
2022-09-09T10:12:51.246Z,21.30
2022-09-09T10:15:33.195Z,21.30
2022-09-09T10:18:29.503Z,21.40
2022-09-09T10:21:21.679Z,21.30
2022-09-09T10:24:09.539Z,21.40
2022-09-09T10:27:01.612Z,21.70
2022-09-09T10:29:40.115Z,22.00
2022-09-09T10:32:26.081Z,22.20
2022-09-09T10:35:10.023Z,22.30
2022-09-09T10:37:58.512Z,22.60
2022-09-09T10:40:36.206Z,22.80
2022-09-09T10:43:33.786Z,22.70
2022-09-09T10:46:05.228Z,23.20
2022-09-09T10:48:53.437Z,23.20
2022-09-09T10:51:29.085Z,23.00
2022-09-09T10:54:19.902Z,22.60
2022-09-09T10:56:54.482Z,22.70
2022-09-09T10:59:27.187Z,22.80
2022-09-09T11:02:03.420Z,22.40
2022-09-09T11:04:41.141Z,21.80
2022-09-09T11:07:12.421Z,21.10
2022-09-09T11:09:53.962Z,20.30
2022-09-09T11:12:21.320Z,18.80
2022-09-09T11:14:58.450Z,17.90
2022-09-09T11:17:36.821Z,17.30
2022-09-09T11:20:06.127Z,16.70
2022-09-09T11:22:44.203Z,16.40
2022-09-09T11:25:33.197Z,16.40
2022-09-09T11:30:57.196Z,16.80
2022-09-09T11:33:45.697Z,17.30
2022-09-09T11:36:44.206Z,17.50
2022-09-09T11:39:47.475Z,17.50
2022-09-09T11:42:14.042Z,17.60
2022-09-09T11:44:42.122Z,17.80
2022-09-09T11:47:31.476Z,18.00
2022-09-09T11:50:13.171Z,18.10
2022-09-09T11:52:48.270Z,17.90
2022-09-09T11:55:31.462Z,17.90
2022-09-09T11:58:11.982Z,18.00
2022-09-09T12:00:46.022Z,18.10
2022-09-09T12:03:45.941Z,18.40
2022-09-09T12:06:27.607Z,18.60
2022-09-09T12:08:59.591Z,19.00
2022-09-09T12:11:29.240Z,19.50
2022-09-09T12:14:00.570Z,19.70
2022-09-09T12:16:39.593Z,20.10
2022-09-09T12:19:08.099Z,20.40
2022-09-09T12:21:50.664Z,20.50
2022-09-09T12:24:30.050Z,20.80
2022-09-09T12:27:12.343Z,21.00
2022-09-09T12:29:55.975Z,21.00
2022-09-09T12:32:27.749Z,21.00
2022-09-09T12:35:02.903Z,21.10
2022-09-09T12:37:29.644Z,21.00
2022-09-09T12:40:03.022Z,20.90
2022-09-09T12:42:29.760Z,21.00
2022-09-09T12:45:00.436Z,20.90
2022-09-09T12:48:04.872Z,21.00
2022-09-09T12:50:37.800Z,21.20
2022-09-09T12:53:26.336Z,21.30
2022-09-09T12:56:07.383Z,21.10
2022-09-09T12:58:35.663Z,21.40
2022-09-09T13:01:06.014Z,21.50
2022-09-09T13:03:34.671Z,21.80
2022-09-09T13:06:19.142Z,22.10
2022-09-09T13:08:45.707Z,22.30
2022-09-09T13:11:17.635Z,22.10
2022-09-09T13:13:50.903Z,22.00
2022-09-09T13:16:42.070Z,22.20
2022-09-09T13:19:15.357Z,22.50
2022-09-09T13:21:43.501Z,22.60
2022-09-09T13:24:30.245Z,22.60
2022-09-09T13:27:21.324Z,22.70
2022-09-09T13:29:58.244Z,22.80
2022-09-09T13:32:27.929Z,22.80
2022-09-09T13:34:57.440Z,22.70
2022-09-09T13:37:37.028Z,22.60
2022-09-09T13:40:07.063Z,22.90
2022-09-09T13:42:40.064Z,23.10
2022-09-09T13:45:07.332Z,22.70
2022-09-09T13:47:35.983Z,22.70
2022-09-09T13:50:24.577Z,23.10
2022-09-09T13:52:54.294Z,22.90
2022-09-09T13:55:23.325Z,22.80
2022-09-09T13:58:04.037Z,23.10
2022-09-09T14:00:32.592Z,23.30
2022-09-09T14:03:01.123Z,23.50
2022-09-09T14:05:28.237Z,23.30
2022-09-09T14:07:54.940Z,23.30
2022-09-09T14:10:22.154Z,22.90
2022-09-09T14:12:48.769Z,22.90
2022-09-09T14:15:15.555Z,23.00
2022-09-09T14:17:42.569Z,23.50
2022-09-09T14:20:10.223Z,24.10
2022-09-09T14:22:37.722Z,24.20
2022-09-09T14:25:05.209Z,24.00
2022-09-09T14:27:32.054Z,24.00
2022-09-09T14:29:58.814Z,24.20
2022-09-09T14:32:25.431Z,23.90
2022-09-09T14:34:51.967Z,23.50
2022-09-09T14:37:18.970Z,22.90
2022-09-09T14:39:47.847Z,22.50
2022-09-09T14:42:15.310Z,22.30
2022-09-09T14:44:41.835Z,22.50
2022-09-09T14:47:09.351Z,23.10
2022-09-09T14:49:36.591Z,23.80
2022-09-09T14:52:04.556Z,24.20
2022-09-09T14:54:33.071Z,24.40
2022-09-09T14:57:00.060Z,23.90
2022-09-09T14:59:27.743Z,23.70
2022-09-09T15:01:54.418Z,23.50
2022-09-09T15:04:21.378Z,23.30
2022-09-09T15:06:49.257Z,23.10
2022-09-09T15:09:16.298Z,22.80
2022-09-09T15:11:42.967Z,22.50
2022-09-09T15:14:10.522Z,22.10
2022-09-09T15:16:37.535Z,21.90
2022-09-09T15:19:04.493Z,21.70
2022-09-09T15:21:34.130Z,21.60
2022-09-09T15:24:01.101Z,21.50
2022-09-09T15:26:28.332Z,21.40
2022-09-09T15:28:55.685Z,21.40
2022-09-09T15:31:26.628Z,21.30
2022-09-09T15:34:01.323Z,21.40
2022-09-09T15:36:34.141Z,21.50
2022-09-09T15:39:01.823Z,21.60
2022-09-09T15:41:29.329Z,21.60
2022-09-09T15:44:00.738Z,21.70
2022-09-09T15:46:29.248Z,21.50
2022-09-09T15:48:58.187Z,21.20
2022-09-09T15:51:43.710Z,20.90
2022-09-09T15:54:13.500Z,20.80
2022-09-09T15:56:40.919Z,20.60
2022-09-09T15:59:07.524Z,20.50
2022-09-09T16:01:34.625Z,20.50
2022-09-09T16:04:01.320Z,20.50
2022-09-09T16:06:29.404Z,20.50
2022-09-09T16:08:57.461Z,20.50
2022-09-09T16:11:30.172Z,20.40
2022-09-09T16:13:56.969Z,20.40
2022-09-09T16:16:26.047Z,20.40
2022-09-09T16:18:55.184Z,20.40
2022-09-09T16:21:30.429Z,20.30
2022-09-09T16:24:00.243Z,20.20
2022-09-09T16:26:28.451Z,19.50
2022-09-09T16:28:55.236Z,19.10
2022-09-09T16:31:24.192Z,18.60
2022-09-09T16:33:51.789Z,18.20
2022-09-09T16:36:27.036Z,18.10
2022-09-09T16:38:56.043Z,18.00
2022-09-09T16:41:23.167Z,17.90
2022-09-09T16:43:57.252Z,18.00
2022-09-09T16:46:25.051Z,18.00
2022-09-09T16:48:52.693Z,18.10
2022-09-09T16:51:32.647Z,18.20
2022-09-09T16:54:01.338Z,18.20
2022-09-09T16:56:29.721Z,18.00
2022-09-09T16:59:01.700Z,17.80
2022-09-09T17:01:34.450Z,17.60
2022-09-09T17:04:03.308Z,17.40
2022-09-09T17:06:31.274Z,17.40
2022-09-09T17:08:59.918Z,17.30
2022-09-09T17:11:26.776Z,17.20
2022-09-09T17:13:55.484Z,17.10
2022-09-09T17:16:23.953Z,16.90
2022-09-09T17:18:51.958Z,16.80
2022-09-09T17:21:21.590Z,16.60
2022-09-09T17:23:48.740Z,16.40
2022-09-09T17:26:18.643Z,16.30
2022-09-09T17:28:46.552Z,16.20
2022-09-09T17:31:18.010Z,16.10
2022-09-09T17:33:47.118Z,16.10
2022-09-09T17:36:16.868Z,16.00
2022-09-09T17:38:43.844Z,15.90
2022-09-09T17:41:16.458Z,16.00
2022-09-09T17:43:43.491Z,16.00
2022-09-09T17:46:11.434Z,16.00
2022-09-09T17:48:38.975Z,16.00
2022-09-09T17:51:08.688Z,16.00
2022-09-09T17:53:43.819Z,16.00
2022-09-09T17:56:13.030Z,15.90
2022-09-09T17:58:40.035Z,15.80
2022-09-09T18:01:08.308Z,15.70
2022-09-09T18:03:36.462Z,15.60
2022-09-09T18:06:05.686Z,15.60
2022-09-09T18:08:36.752Z,15.70
2022-09-09T18:11:04.439Z,15.70
2022-09-09T18:13:31.333Z,15.80
2022-09-09T18:15:58.430Z,15.80
2022-09-09T18:18:25.535Z,15.90
2022-09-09T18:21:00.071Z,16.00
2022-09-09T18:23:26.842Z,16.00
2022-09-09T18:25:53.424Z,16.00
2022-09-09T18:28:24.531Z,16.10
2022-09-09T18:30:52.464Z,16.10
2022-09-09T18:33:19.048Z,16.20
2022-09-09T18:35:48.170Z,16.10
2022-09-09T18:38:17.219Z,16.00
2022-09-09T18:40:44.183Z,15.90
2022-09-09T18:43:12.629Z,15.80
2022-09-09T18:45:39.169Z,15.80
2022-09-09T18:48:05.759Z,15.70
2022-09-09T18:50:34.095Z,15.60
2022-09-09T18:53:00.654Z,15.50
2022-09-09T18:55:28.718Z,15.40
2022-09-09T18:57:55.278Z,15.30
2022-09-09T19:00:21.807Z,15.20
2022-09-09T19:02:52.006Z,15.20
2022-09-09T19:05:18.678Z,15.10
2022-09-09T19:07:45.227Z,15.10
2022-09-09T19:10:11.783Z,15.00
2022-09-09T19:12:39.178Z,14.90
2022-09-09T19:15:06.123Z,14.90
2022-09-09T19:17:34.287Z,15.00
2022-09-09T19:20:00.919Z,15.00
2022-09-09T19:22:29.431Z,15.00
2022-09-09T19:24:56.513Z,15.00
2022-09-09T19:27:23.122Z,15.10
2022-09-09T19:29:52.114Z,15.10
2022-09-09T19:32:52.758Z,15.20
2022-09-09T19:35:09.629Z,15.20
2022-09-09T19:37:36.438Z,15.20
2022-09-09T19:40:08.098Z,15.10
2022-09-09T19:42:34.700Z,15.10
2022-09-09T19:45:01.306Z,15.00
2022-09-09T19:47:27.937Z,15.00
2022-09-09T19:49:54.449Z,14.90
2022-09-09T19:52:20.985Z,14.80
2022-09-09T19:57:14.639Z,14.60
2022-09-09T19:59:41.204Z,14.50
2022-09-09T20:02:09.243Z,14.40
2022-09-09T20:04:35.779Z,14.30
2022-09-09T20:07:02.285Z,14.30
2022-09-09T20:09:30.332Z,14.20
2022-09-09T20:11:56.978Z,14.10
2022-09-09T20:14:24.011Z,14.20
2022-09-09T20:16:50.605Z,14.20
2022-09-09T20:19:17.275Z,14.30
2022-09-09T20:21:47.784Z,14.30
2022-09-09T20:24:16.329Z,14.40
2022-09-09T20:26:44.446Z,14.40
2022-09-09T20:29:16.239Z,14.50
2022-09-09T20:31:44.238Z,14.50
2022-09-09T20:34:13.477Z,14.60
2022-09-09T20:36:41.319Z,14.70
2022-09-09T20:39:09.308Z,14.80
2022-09-09T20:41:37.855Z,14.90
2022-09-09T20:44:12.195Z,15.00
2022-09-09T20:46:40.745Z,15.10
2022-09-09T20:49:09.768Z,15.20
2022-09-09T20:51:37.115Z,15.20
2022-09-09T20:54:12.058Z,15.20
2022-09-09T20:56:40.722Z,15.20
2022-09-09T20:59:12.746Z,15.20
2022-09-09T21:01:40.636Z,15.10
2022-09-09T21:04:08.311Z,15.20
2022-09-09T21:09:03.026Z,15.10
2022-09-09T21:11:29.639Z,15.20
2022-09-09T21:13:56.391Z,15.10
2022-09-09T21:16:23.001Z,15.00
2022-09-09T21:18:50.235Z,14.90
2022-09-09T21:21:21.108Z,14.80
2022-09-09T21:23:48.969Z,14.70
2022-09-09T21:26:15.641Z,14.70
2022-09-09T21:28:42.255Z,14.60
2022-09-09T21:31:15.108Z,14.50
2022-09-09T21:33:42.956Z,14.50
2022-09-09T21:36:11.497Z,14.50
2022-09-09T21:38:40.319Z,14.60
2022-09-09T21:41:13.325Z,14.60
2022-09-09T21:43:44.421Z,14.60
2022-09-09T21:46:14.416Z,14.60
2022-09-09T21:48:41.142Z,14.60
2022-09-09T21:51:10.809Z,14.60
2022-09-09T21:53:38.509Z,14.50
2022-09-09T21:56:11.510Z,14.50
2022-09-09T21:58:38.520Z,14.60
2022-09-09T22:01:18.118Z,14.60
2022-09-09T22:03:45.553Z,14.80
2022-09-09T22:06:14.903Z,14.90
2022-09-09T22:08:41.627Z,14.90
2022-09-09T22:11:20.497Z,15.00
2022-09-09T22:13:47.142Z,15.00
2022-09-09T22:16:16.630Z,14.90
2022-09-09T22:18:43.836Z,14.80
2022-09-09T22:21:15.725Z,14.70
2022-09-09T22:23:42.415Z,14.70
2022-09-09T22:26:10.079Z,14.60
2022-09-09T22:28:38.537Z,14.60
2022-09-09T22:31:05.992Z,14.50
2022-09-09T22:33:32.658Z,14.60
2022-09-09T22:35:59.289Z,14.70
2022-09-09T22:38:26.908Z,14.80
2022-09-09T22:40:53.714Z,15.00
2022-09-09T22:43:21.517Z,15.10
2022-09-09T22:45:49.951Z,15.20
2022-09-09T22:48:17.072Z,15.30
2022-09-09T22:50:44.925Z,15.40
2022-09-09T22:53:14.830Z,15.40
2022-09-09T22:55:41.754Z,15.40
2022-09-09T22:58:09.386Z,15.60
2022-09-09T23:00:39.643Z,15.50
2022-09-09T23:03:06.395Z,15.40
2022-09-09T23:05:34.106Z,15.30
2022-09-09T23:08:00.665Z,15.20
2022-09-09T23:10:32.005Z,15.00
2022-09-09T23:12:58.706Z,14.90
2022-09-09T23:15:25.477Z,14.70
2022-09-09T23:17:52.440Z,14.60
2022-09-09T23:20:19.520Z,14.40
2022-09-09T23:22:46.578Z,14.30
2022-09-09T23:25:13.162Z,14.20
2022-09-09T23:27:39.710Z,14.10
2022-09-09T23:30:07.182Z,14.00
2022-09-09T23:32:34.148Z,14.00
2022-09-09T23:35:00.680Z,14.00
2022-09-09T23:37:27.253Z,14.00
2022-09-09T23:39:54.618Z,13.90
2022-09-09T23:42:21.240Z,13.90
2022-09-09T23:44:48.247Z,13.90
2022-09-09T23:47:14.798Z,13.90
2022-09-09T23:49:41.433Z,13.90
2022-09-09T23:52:08.043Z,13.90
2022-09-09T23:54:35.587Z,13.90
2022-09-09T23:57:03.292Z,13.90
2022-09-09T23:59:30.986Z,13.90
